createdAt,value
2019-02-16T00:00:07.790Z,8.33
2019-02-16T00:02:39.135Z,8.60
2019-02-16T00:05:09.859Z,8.50
2019-02-16T00:07:41.221Z,9.03
2019-02-16T00:10:19.699Z,9.27
2019-02-16T00:12:50.724Z,9.17
2019-02-16T00:15:21.819Z,9.50
2019-02-16T00:18:03.305Z,9.50
2019-02-16T00:20:35.058Z,10.60
2019-02-16T00:23:09.709Z,9.60
2019-02-16T00:25:48.778Z,10.73
2019-02-16T00:28:20.286Z,9.50
2019-02-16T00:30:59.385Z,9.70
2019-02-16T00:33:40.698Z,9.13
2019-02-16T00:36:17.270Z,8.70
2019-02-16T00:38:48.144Z,10.10
2019-02-16T00:41:21.813Z,8.93
2019-02-16T00:43:52.518Z,9.50
2019-02-16T00:46:23.954Z,10.57
2019-02-16T00:48:55.031Z,9.67
2019-02-16T00:51:26.346Z,8.23
2019-02-16T00:53:57.027Z,9.53
2019-02-16T00:56:28.604Z,8.20
2019-02-16T00:59:00.356Z,8.87
2019-02-16T01:01:32.057Z,10.03
2019-02-16T01:04:03.102Z,9.37
2019-02-16T01:07:12.316Z,9.17
2019-02-16T01:09:43.946Z,9.23
2019-02-16T01:12:15.255Z,10.33
2019-02-16T01:14:46.584Z,10.33
2019-02-16T01:17:17.918Z,10.13
2019-02-16T01:19:48.939Z,9.80
2019-02-16T01:22:20.291Z,10.13
2019-02-16T01:25:07.910Z,11.20
2019-02-16T01:27:38.944Z,9.50
2019-02-16T01:30:12.057Z,10.47
2019-02-16T01:32:43.225Z,10.50
2019-02-16T01:35:14.556Z,9.77
2019-02-16T01:37:46.007Z,10.23
2019-02-16T01:40:17.416Z,10.23
2019-02-16T01:42:48.486Z,9.47
2019-02-16T01:45:20.124Z,9.63
2019-02-16T01:47:51.607Z,9.77
2019-02-16T01:50:23.292Z,9.80
2019-02-16T01:52:54.800Z,10.07
2019-02-16T01:55:26.148Z,9.93
2019-02-16T01:57:58.006Z,9.80
2019-02-16T02:00:29.315Z,9.73
2019-02-16T03:01:52.895Z,17.47
2019-02-16T03:04:24.492Z,20.07
2019-02-16T03:06:56.151Z,17.83
2019-02-16T03:09:27.844Z,15.37
2019-02-16T03:11:59.216Z,14.43
2019-02-16T03:14:30.538Z,12.53
2019-02-16T03:17:02.217Z,11.43
2019-02-16T03:19:34.614Z,12.23
2019-02-16T03:22:05.957Z,10.70
2019-02-16T03:24:37.293Z,10.47
2019-02-16T03:27:31.716Z,11.73
2019-02-16T03:30:31.721Z,10.10
2019-02-16T03:33:36.512Z,10.70
2019-02-16T03:36:56.648Z,9.80
2019-02-16T03:39:32.498Z,11.17
2019-02-16T03:42:03.539Z,11.07
2019-02-16T03:44:35.258Z,10.83
2019-02-16T03:47:06.785Z,10.53
2019-02-16T03:49:38.206Z,10.83
2019-02-16T03:52:13.829Z,12.00
2019-02-16T03:54:43.027Z,11.30
2019-02-16T03:57:13.954Z,10.27
2019-02-16T03:59:48.702Z,11.57
2019-02-16T04:02:20.066Z,11.53
2019-02-16T04:04:52.089Z,10.40
2019-02-16T04:07:24.192Z,11.67
2019-02-16T04:09:55.773Z,11.63
2019-02-16T04:12:27.430Z,10.23
2019-02-16T04:14:58.838Z,10.90
2019-02-16T04:17:30.174Z,10.40
2019-02-16T04:20:01.875Z,11.50
2019-02-16T04:22:32.535Z,11.57
2019-02-16T04:25:03.649Z,11.60
2019-02-16T04:27:35.115Z,11.50
2019-02-16T04:30:12.435Z,10.77
2019-02-16T04:32:44.158Z,10.67
2019-02-16T04:35:15.458Z,11.90
2019-02-16T04:37:47.135Z,11.40
2019-02-16T04:40:18.874Z,11.30
2019-02-16T04:42:49.970Z,10.07
2019-02-16T04:45:21.583Z,10.97
2019-02-16T04:47:53.599Z,10.50
2019-02-16T04:50:25.234Z,10.40
2019-02-16T04:52:56.604Z,10.97
2019-02-16T04:55:27.712Z,11.80
2019-02-16T04:57:59.139Z,10.00
2019-02-16T05:00:30.252Z,11.13
2019-02-16T05:03:02.290Z,11.17
2019-02-16T05:05:33.987Z,9.97
2019-02-16T05:08:05.252Z,10.33
2019-02-16T05:10:36.297Z,11.07
2019-02-16T05:13:07.917Z,10.27
2019-02-16T05:15:39.892Z,11.63
2019-02-16T05:18:11.259Z,10.63
2019-02-16T05:20:42.284Z,11.37
2019-02-16T05:23:12.991Z,11.03
2019-02-16T05:25:44.291Z,11.70
2019-02-16T05:28:15.650Z,10.40
2019-02-16T05:30:47.329Z,10.13
2019-02-16T05:33:19.047Z,11.00
2019-02-16T05:35:49.760Z,11.30
2019-02-16T05:39:06.351Z,10.87
2019-02-16T05:41:37.757Z,11.10
2019-02-16T05:44:08.876Z,10.77
2019-02-16T05:46:40.215Z,10.53
2019-02-16T05:49:11.524Z,10.60
2019-02-16T05:51:43.664Z,11.27
2019-02-16T05:54:15.444Z,11.70
2019-02-16T05:56:46.501Z,10.70
2019-02-16T05:59:17.195Z,10.43
2019-02-16T06:01:53.778Z,10.13
2019-02-16T06:04:22.473Z,10.83
2019-02-16T06:06:54.284Z,10.23
2019-02-16T06:09:25.636Z,10.03
2019-02-16T06:11:57.036Z,12.07
2019-02-16T06:14:28.606Z,12.07
2019-02-16T06:17:00.098Z,13.00
2019-02-16T06:19:31.138Z,11.87
2019-02-16T06:23:06.808Z,12.80
2019-02-16T06:25:40.709Z,11.93
2019-02-16T06:28:12.208Z,14.97
2019-02-16T06:30:43.619Z,12.60
2019-02-16T06:33:18.433Z,12.60
2019-02-16T06:35:56.101Z,12.57
2019-02-16T06:38:27.901Z,12.13
2019-02-16T06:40:59.160Z,13.17
2019-02-16T06:43:30.756Z,14.37
2019-02-16T06:46:01.402Z,12.03
2019-02-16T06:48:33.094Z,15.33
2019-02-16T06:51:04.459Z,20.03
2019-02-16T06:53:35.992Z,16.00
2019-02-16T06:56:15.488Z,10.60
2019-02-16T06:58:46.531Z,10.20
2019-02-16T07:01:18.485Z,10.50
2019-02-16T07:03:49.209Z,11.57
2019-02-16T07:06:20.927Z,11.63
2019-02-16T07:08:52.249Z,10.33
2019-02-16T07:11:23.592Z,9.67
2019-02-16T07:13:55.741Z,12.47
2019-02-16T07:17:13.899Z,11.27
2019-02-16T07:19:49.030Z,10.47
2019-02-16T07:22:20.073Z,11.77
2019-02-16T07:24:51.740Z,10.23
2019-02-16T07:28:31.070Z,10.53
2019-02-16T07:31:01.773Z,9.60
2019-02-16T07:33:33.175Z,11.40
2019-02-16T07:36:04.215Z,14.97
2019-02-16T07:38:35.322Z,10.30
2019-02-16T07:41:49.847Z,11.83
2019-02-16T07:44:35.993Z,15.37
2019-02-16T07:47:18.946Z,11.00
2019-02-16T07:50:04.695Z,11.30
2019-02-16T07:52:54.621Z,12.47
2019-02-16T07:55:36.575Z,8.97
2019-02-16T07:58:57.046Z,9.67
2019-02-16T08:01:47.366Z,13.57
2019-02-16T08:04:43.082Z,8.83
2019-02-16T08:07:22.238Z,10.23
2019-02-16T08:10:18.396Z,9.00
2019-02-16T08:13:18.854Z,8.87
2019-02-16T08:16:02.703Z,9.10
2019-02-16T08:18:49.231Z,8.77
2019-02-16T08:21:38.318Z,8.57
2019-02-16T08:24:39.864Z,9.53
2019-02-16T08:27:35.522Z,12.30
2019-02-16T08:30:24.009Z,8.90
2019-02-16T08:33:19.088Z,9.80
2019-02-16T08:36:18.468Z,9.23
2019-02-16T08:39:27.118Z,8.73
2019-02-16T08:42:48.940Z,8.67
2019-02-16T08:45:40.935Z,9.03
2019-02-16T08:48:26.703Z,8.23
2019-02-16T08:51:18.666Z,9.03
2019-02-16T08:54:03.946Z,10.07
2019-02-16T08:57:10.316Z,8.27
2019-02-16T09:00:04.527Z,8.97
2019-02-16T09:02:52.658Z,12.30
2019-02-16T09:05:57.006Z,9.80
2019-02-16T09:08:56.684Z,8.93
2019-02-16T09:11:56.408Z,8.73
2019-02-16T09:14:53.056Z,9.13
2019-02-16T09:17:37.090Z,8.33
2019-02-16T09:20:27.898Z,8.73
2019-02-16T09:23:10.937Z,9.27
2019-02-16T09:26:04.815Z,8.90
2019-02-16T09:28:57.481Z,9.97
2019-02-16T09:31:50.348Z,7.97
2019-02-16T09:34:34.152Z,8.97
2019-02-16T09:37:24.752Z,9.53
2019-02-16T09:40:15.135Z,9.93
2019-02-16T09:43:04.390Z,9.80
2019-02-16T09:45:41.901Z,9.47
2019-02-16T09:48:30.513Z,10.10
2019-02-16T09:51:34.979Z,9.30
2019-02-16T09:54:27.683Z,10.17
2019-02-16T09:57:16.921Z,8.60
2019-02-16T09:59:54.183Z,9.77
2019-02-16T10:02:45.384Z,11.17
2019-02-16T10:05:44.443Z,10.10
2019-02-16T10:08:32.426Z,9.93
2019-02-16T10:11:12.997Z,9.40
2019-02-16T10:14:09.781Z,10.23
2019-02-16T10:17:00.279Z,9.97
2019-02-16T10:19:46.534Z,10.10
2019-02-16T10:22:32.195Z,9.93
2019-02-16T10:25:31.010Z,10.03
2019-02-16T10:28:20.073Z,9.50
2019-02-16T10:31:12.344Z,9.57
2019-02-16T10:34:05.946Z,9.70
2019-02-16T10:36:49.054Z,10.63
2019-02-16T10:39:33.455Z,9.97
2019-02-16T10:42:22.061Z,11.47
2019-02-16T10:45:27.484Z,11.03
2019-02-16T10:48:26.914Z,11.53
2019-02-16T10:51:05.405Z,10.50
2019-02-16T10:54:04.208Z,15.60
2019-02-16T10:56:52.465Z,14.43
2019-02-16T10:59:58.302Z,14.47
2019-02-16T11:03:02.410Z,12.23
2019-02-16T11:05:39.610Z,14.47
2019-02-16T11:08:28.672Z,12.47
2019-02-16T11:11:19.017Z,11.47
2019-02-16T11:14:07.026Z,11.63
2019-02-16T11:17:05.665Z,12.57
2019-02-16T11:19:58.552Z,11.77
2019-02-16T11:22:41.378Z,12.40
2019-02-16T11:25:34.604Z,12.80
2019-02-16T11:28:23.389Z,14.07
2019-02-16T11:31:18.262Z,14.20
2019-02-16T11:34:20.266Z,13.60
2019-02-16T11:36:55.870Z,15.13
2019-02-16T11:39:55.950Z,15.67
2019-02-16T11:42:39.608Z,15.60
2019-02-16T11:45:33.143Z,15.13
2019-02-16T11:48:28.664Z,13.97
2019-02-16T11:51:09.687Z,15.27
2019-02-16T11:53:48.514Z,16.23
2019-02-16T11:56:37.589Z,15.63
2019-02-16T11:59:21.842Z,16.00
2019-02-16T12:02:20.924Z,15.17
2019-02-16T12:05:14.306Z,14.70
2019-02-16T12:08:17.525Z,15.73
2019-02-16T12:11:05.527Z,16.03
2019-02-16T12:13:58.315Z,15.20
2019-02-16T12:16:58.621Z,14.97
2019-02-16T12:19:38.518Z,15.30
2019-02-16T12:22:34.685Z,15.00
2019-02-16T12:25:24.650Z,15.37
2019-02-16T12:28:22.300Z,14.60
2019-02-16T12:31:24.201Z,14.97
2019-02-16T12:34:17.526Z,15.33
2019-02-16T12:37:02.557Z,13.97
2019-02-16T12:40:01.371Z,14.07
2019-02-16T12:43:04.428Z,13.70
2019-02-16T12:46:17.258Z,14.37
2019-02-16T12:49:07.472Z,13.60
2019-02-16T12:51:51.047Z,13.63
2019-02-16T12:54:30.005Z,14.40
2019-02-16T12:57:06.470Z,13.30
2019-02-16T12:59:55.213Z,14.07
2019-02-16T13:02:51.848Z,12.93
2019-02-16T13:05:40.827Z,13.23
2019-02-16T13:08:44.067Z,12.73
2019-02-16T13:11:29.308Z,14.00
2019-02-16T13:14:18.671Z,13.63
2019-02-16T13:17:08.044Z,13.13
2019-02-16T13:20:02.117Z,13.50
2019-02-16T13:22:41.467Z,14.27
2019-02-16T13:25:37.474Z,14.10
2019-02-16T13:28:19.782Z,14.30
2019-02-16T13:31:09.652Z,14.10
2019-02-16T13:34:02.825Z,14.77
2019-02-16T13:36:40.056Z,13.77
2019-02-16T13:39:22.028Z,14.33
2019-02-16T13:42:12.047Z,14.33
2019-02-16T13:44:50.793Z,14.60
2019-02-16T13:47:36.194Z,15.43
2019-02-16T13:50:16.136Z,15.60
2019-02-16T13:52:53.714Z,15.70
2019-02-16T13:55:42.782Z,15.57
2019-02-16T13:58:36.062Z,14.23
2019-02-16T14:01:29.464Z,15.40
2019-02-16T14:04:37.521Z,16.50
2019-02-16T14:07:22.377Z,15.83
2019-02-16T14:10:30.833Z,15.57
2019-02-16T14:13:20.781Z,15.63
2019-02-16T14:16:05.974Z,13.87
2019-02-16T14:18:36.994Z,14.43
2019-02-16T14:21:09.087Z,14.77
2019-02-16T14:23:40.770Z,14.13
2019-02-16T14:26:12.086Z,13.70
2019-02-16T14:28:43.438Z,14.97
2019-02-16T14:31:16.711Z,13.40
2019-02-16T14:33:47.791Z,13.80
2019-02-16T14:36:19.450Z,14.20
2019-02-16T14:38:58.769Z,14.33
2019-02-16T14:41:30.484Z,14.10
2019-02-16T14:44:02.116Z,14.17
2019-02-16T14:46:33.192Z,13.90
2019-02-16T14:49:03.900Z,13.90
2019-02-16T14:51:34.572Z,13.00
2019-02-16T14:54:06.214Z,13.97
2019-02-16T14:56:37.548Z,14.17
2019-02-16T14:59:08.898Z,15.73
2019-02-16T15:01:40.267Z,13.90
2019-02-16T15:04:11.949Z,16.27
2019-02-16T15:06:42.954Z,15.37
2019-02-16T15:09:14.709Z,15.23
2019-02-16T15:11:46.384Z,15.80
2019-02-16T15:14:18.116Z,15.07
2019-02-16T15:16:49.811Z,15.33
2019-02-16T15:19:25.634Z,14.73
2019-02-16T15:21:56.827Z,15.37
2019-02-16T15:24:27.939Z,13.97
2019-02-16T15:26:59.270Z,14.13
2019-02-16T15:29:29.955Z,13.80
2019-02-16T15:32:03.317Z,14.73
2019-02-16T15:34:35.395Z,14.97
2019-02-16T15:37:06.402Z,14.83
2019-02-16T15:39:37.858Z,14.90
2019-02-16T15:42:09.209Z,15.30
2019-02-16T15:44:40.695Z,14.53
2019-02-16T15:47:12.121Z,14.03
2019-02-16T15:49:43.878Z,13.17
2019-02-16T15:52:15.266Z,13.77
2019-02-16T15:54:46.694Z,13.67
2019-02-16T15:57:17.395Z,14.80
2019-02-16T16:00:02.406Z,13.53
2019-02-16T16:02:33.922Z,13.38
2019-02-16T16:05:06.232Z,14.00
2019-02-16T16:07:38.883Z,12.53
2019-02-16T16:10:15.654Z,14.60
2019-02-16T16:12:58.673Z,12.00
2019-02-16T16:16:07.511Z,13.48
2019-02-16T16:19:03.938Z,13.70
2019-02-16T16:21:52.911Z,12.93
2019-02-16T16:24:55.270Z,13.70
2019-02-16T16:27:45.237Z,14.43
2019-02-16T16:30:40.326Z,14.80
2019-02-16T16:33:21.014Z,13.80
2019-02-16T16:36:05.384Z,13.17
2019-02-16T16:39:02.336Z,13.23
2019-02-16T16:41:51.135Z,13.20
2019-02-16T16:44:33.745Z,13.33
2019-02-16T16:47:23.924Z,12.67
2019-02-16T16:50:32.745Z,14.83
2019-02-16T16:53:46.516Z,13.57
2019-02-16T16:56:28.654Z,12.93
2019-02-16T16:59:12.495Z,13.10
2019-02-16T17:02:01.861Z,14.10
2019-02-16T17:04:52.256Z,13.33
2019-02-16T17:07:37.212Z,13.03
2019-02-16T17:10:25.837Z,14.73
2019-02-16T17:13:33.618Z,16.60
2019-02-16T17:19:39.257Z,18.30
2019-02-16T17:22:33.134Z,17.50
2019-02-16T17:25:22.409Z,17.37
2019-02-16T17:28:11.361Z,17.03
2019-02-16T17:30:51.516Z,16.20
2019-02-16T17:33:55.738Z,15.27
2019-02-16T17:36:46.113Z,15.00
2019-02-16T17:39:26.336Z,14.13
2019-02-16T17:42:31.780Z,13.93
2019-02-16T17:45:20.086Z,14.40
2019-02-16T17:48:03.511Z,13.43
2019-02-16T17:50:41.926Z,13.13
2019-02-16T17:53:31.913Z,16.93
2019-02-16T17:56:46.723Z,16.67
2019-02-16T17:59:24.569Z,16.50
2019-02-16T18:02:27.373Z,15.47
2019-02-16T18:05:21.376Z,13.47
2019-02-16T18:08:08.750Z,13.63
2019-02-16T18:10:55.984Z,12.10
2019-02-16T18:14:02.045Z,12.70
2019-02-16T18:16:39.329Z,12.07
2019-02-16T18:19:29.724Z,12.03
2019-02-16T18:22:22.945Z,11.93
2019-02-16T18:25:09.737Z,10.83
2019-02-16T18:28:12.090Z,11.27
2019-02-16T18:30:57.859Z,10.90
2019-02-16T18:33:47.240Z,11.47
2019-02-16T18:36:26.776Z,10.70
2019-02-16T18:39:05.543Z,10.30
2019-02-16T18:42:01.986Z,10.67
2019-02-16T18:45:11.045Z,9.73
2019-02-16T18:48:10.370Z,10.90
2019-02-16T18:51:03.336Z,11.47
2019-02-16T18:54:01.994Z,11.00
2019-02-16T18:56:50.689Z,10.27
2019-02-16T18:59:43.492Z,11.63
2019-02-16T19:02:29.074Z,13.63
2019-02-16T19:05:54.573Z,10.77
2019-02-16T19:08:44.137Z,10.20
2019-02-16T19:11:49.439Z,10.83
2019-02-16T19:14:37.982Z,11.50
2019-02-16T19:17:44.963Z,11.60
2019-02-16T19:20:48.464Z,12.17
2019-02-16T19:23:44.612Z,11.67
2019-02-16T19:26:41.278Z,10.97
2019-02-16T19:32:51.517Z,10.90
2019-02-16T19:35:39.815Z,11.13
2019-02-16T19:38:32.286Z,10.03
2019-02-16T19:41:32.321Z,10.07
2019-02-16T19:44:21.906Z,10.73
2019-02-16T19:47:12.501Z,11.33
2019-02-16T19:50:05.632Z,11.33
2019-02-16T19:53:01.974Z,10.20
2019-02-16T19:55:51.461Z,10.77
2019-02-16T19:58:41.475Z,10.77
2019-02-16T20:01:49.662Z,9.50
2019-02-16T20:04:42.181Z,9.13
2019-02-16T20:07:44.428Z,9.53
2019-02-16T20:10:33.767Z,9.17
2019-02-16T20:13:22.597Z,9.77
2019-02-16T20:16:21.382Z,9.83
2019-02-16T20:19:27.444Z,10.20
2019-02-16T20:22:23.383Z,10.27
2019-02-16T20:25:19.905Z,8.83
2019-02-16T20:28:07.942Z,9.40
2019-02-16T20:30:47.604Z,9.70
2019-02-16T20:33:37.563Z,9.73
2019-02-16T20:36:32.599Z,8.80
2019-02-16T20:39:21.216Z,10.03
2019-02-16T20:42:19.948Z,10.00
2019-02-16T20:45:19.300Z,9.23
2019-02-16T20:48:15.478Z,10.03
2019-02-16T20:51:05.435Z,9.90
2019-02-16T20:54:02.084Z,8.27
2019-02-16T20:56:44.491Z,9.73
2019-02-16T20:59:31.205Z,8.83
2019-02-16T21:02:30.401Z,9.17
2019-02-16T21:05:24.525Z,10.93
2019-02-16T21:08:11.200Z,9.67
2019-02-16T21:11:01.701Z,9.13
2019-02-16T21:13:38.177Z,9.37
2019-02-16T21:16:24.572Z,8.87
2019-02-16T21:19:28.954Z,8.40
2019-02-16T21:22:24.800Z,8.80
2019-02-16T21:25:20.358Z,10.33
2019-02-16T21:28:07.240Z,9.37
2019-02-16T21:30:56.609Z,9.53
2019-02-16T21:33:52.627Z,8.83
2019-02-16T21:36:35.865Z,9.23
2019-02-16T21:39:30.556Z,9.37
2019-02-16T21:42:13.584Z,9.60
2019-02-16T21:45:02.967Z,10.83
2019-02-16T21:47:53.269Z,9.80
2019-02-16T21:50:40.252Z,10.50
2019-02-16T21:53:36.370Z,10.47
2019-02-16T21:56:15.403Z,10.20
2019-02-16T21:59:19.009Z,11.03
2019-02-16T22:02:02.933Z,10.80
2019-02-16T22:04:49.633Z,10.73
2019-02-16T22:07:52.064Z,12.03
2019-02-16T22:10:48.491Z,12.97
2019-02-16T22:13:20.436Z,11.27
2019-02-16T22:15:51.493Z,12.17
2019-02-16T22:18:23.569Z,10.57
2019-02-16T22:20:54.960Z,10.63
2019-02-16T22:23:26.057Z,10.27
2019-02-16T22:25:57.297Z,10.43
2019-02-16T22:28:31.200Z,10.53
2019-02-16T22:31:01.476Z,10.43
2019-02-16T22:33:32.449Z,11.33
2019-02-16T22:36:03.507Z,10.40
2019-02-16T22:38:34.921Z,11.73
2019-02-16T22:41:24.601Z,11.97
2019-02-16T22:43:55.891Z,12.27
2019-02-16T22:46:27.042Z,10.30
2019-02-16T22:48:58.742Z,10.00
2019-02-16T22:51:30.183Z,10.80
2019-02-16T22:54:01.884Z,11.87
2019-02-16T22:56:33.560Z,10.50
2019-02-16T22:59:05.415Z,11.17
2019-02-16T23:01:36.310Z,10.93
2019-02-16T23:04:07.781Z,11.93
2019-02-16T23:06:38.414Z,12.43
2019-02-16T23:09:21.563Z,11.80
2019-02-16T23:11:53.008Z,11.10
2019-02-16T23:14:24.450Z,12.53
2019-02-16T23:17:00.171Z,11.87
2019-02-16T23:19:31.746Z,11.60
2019-02-16T23:22:03.568Z,11.37
2019-02-16T23:24:33.883Z,10.33
2019-02-16T23:27:05.232Z,10.17
2019-02-16T23:29:36.192Z,11.43
2019-02-16T23:32:08.397Z,12.77
2019-02-16T23:34:40.235Z,11.93
2019-02-16T23:37:11.326Z,11.43
2019-02-16T23:39:43.265Z,12.07
2019-02-16T23:42:14.271Z,12.07
2019-02-16T23:44:47.162Z,11.57
2019-02-16T23:47:37.080Z,14.87
2019-02-16T23:50:08.685Z,13.00
2019-02-16T23:52:39.931Z,13.90
2019-02-16T23:55:11.003Z,10.93
2019-02-16T23:57:41.626Z,12.87
